< Typhoon 201808 2018 Season Typhoon 201810 >
Typhoon 201809 (SON-TINH)
General InformationTrack Information on Google MapsDetailed Wind InformationForecast History on Google MapsAccess Analytics MapList of All Images || NewsDisaster Info.WeblogTrackbackTyphoon FrontTwiphoonTyphoon Now!Typhoon ImaginationJMA Disaster Info. XMLResourceGoogle EarthGE AnimationAtom FeedGeoJSON
Detalied Best Track (Time Zone = UTC)
Year Month Day Hour Lat. Long. Pressure (hPa) Wind (kt) Class Image Chart
2018 7 16 00 18.4 125.3 1000 0 2 Image Chart
2018 7 16 06 18.6 124.0 998 0 2 Image Chart
2018 7 16 12 18.9 122.4 998 0 2 Image Chart
2018 7 16 18 19.3 120.8 998 0 2 Image Chart
2018 7 17 00 19.4 118.5 996 35 3 Image Chart
2018 7 17 06 19.2 115.9 996 35 3 Image Chart
2018 7 17 12 19.0 113.6 994 40 3 Image Chart
2018 7 17 18 18.8 111.3 994 40 3 Image Chart
2018 7 18 00 18.6 109.3 996 35 3 Image Chart
2018 7 18 06 18.8 107.9 994 40 3 Image Chart
2018 7 18 12 18.8 106.8 994 40 3 Image Chart
2018 7 18 18 18.8 105.6 994 35 3 Image Chart
2018 7 19 00 19.1 104.4 998 0 2 Image Chart
2018 7 19 06 19.5 103.3 1000 0 2 Image Chart
2018 7 19 12 19.5 102.9 1000 0 2 Image Chart
2018 7 19 18 19.6 103.4 1000 0 2 Image Chart
2018 7 20 00 19.8 103.9 1002 0 2 Image Chart
2018 7 20 06 20.1 104.3 1000 0 2 Image Chart
2018 7 20 12 20.4 104.6 1000 0 2 Image Chart
2018 7 20 18 20.4 105.1 1000 0 2 Image Chart
2018 7 21 00 20.2 105.5 1000 0 2 Image Chart
2018 7 21 06 19.9 106.0 998 0 2 Image Chart
2018 7 21 12 19.7 106.6 998 0 2 Image Chart
2018 7 21 18 19.5 107.1 996 0 2 Image Chart
2018 7 22 00 19.3 107.6 996 0 2 Image Chart
2018 7 22 06 19.1 108.2 996 0 2 Image Chart
2018 7 22 12 19.1 109.0 994 0 2 Image Chart
2018 7 22 18 19.5 109.5 994 0 2 Image Chart
2018 7 23 00 19.9 109.9 996 0 2 Image Chart
2018 7 23 06 20.4 110.4 994 0 2 Image Chart
2018 7 23 12 20.7 110.7 994 0 2 Image Chart
2018 7 23 18 21.2 110.7 994 0 2 Image Chart
2018 7 24 00 22.1 109.5 998 0 2 Image Chart
2018 7 24 06 22.6 108.9 998 0 2 Image Chart
2018 7 24 12 23.1 108.3 998 0 2 Image Chart
2018 7 24 18 23.6 107.6 1000 0 2 Image Chart
Japan Meteorological Agency Best Track Data | Correction Date : 2018-08-30
< Typhoon 201808 2018 Season Typhoon 201810 >

Help